sensor_id;sensor_type;location;lat;lon;timestamp;P1;durP1;ratioP1;P2;durP2;ratioP2
19225;SDS011;9747;48.536;12.522;2024-02-21T00:01:51;1.45;;;1.35;;
19225;SDS011;9747;48.536;12.522;2024-02-21T00:04:19;1.77;;;1.50;;
19225;SDS011;9747;48.536;12.522;2024-02-21T00:06:47;1.40;;;1.30;;
19225;SDS011;9747;48.536;12.522;2024-02-21T00:09:15;1.52;;;1.40;;
19225;SDS011;9747;48.536;12.522;2024-02-21T00:11:44;1.50;;;1.40;;
19225;SDS011;9747;48.536;12.522;2024-02-21T00:14:11;1.35;;;1.23;;
19225;SDS011;9747;48.536;12.522;2024-02-21T00:16:39;1.30;;;1.20;;
19225;SDS011;9747;48.536;12.522;2024-02-21T00:19:06;1.27;;;1.13;;
19225;SDS011;9747;48.536;12.522;2024-02-21T00:21:34;1.73;;;1.58;;
19225;SDS011;9747;48.536;12.522;2024-02-21T00:24:03;2.20;;;1.42;;
19225;SDS011;9747;48.536;12.522;2024-02-21T00:26:31;1.40;;;1.30;;
19225;SDS011;9747;48.536;12.522;2024-02-21T00:28:58;1.50;;;1.40;;
19225;SDS011;9747;48.536;12.522;2024-02-21T00:31:26;1.42;;;1.33;;
19225;SDS011;9747;48.536;12.522;2024-02-21T00:33:53;1.27;;;1.20;;
19225;SDS011;9747;48.536;12.522;2024-02-21T00:36:21;1.58;;;1.48;;
19225;SDS011;9747;48.536;12.522;2024-02-21T00:38:48;1.95;;;1.33;;
19225;SDS011;9747;48.536;12.522;2024-02-21T00:41:17;1.95;;;1.58;;
19225;SDS011;9747;48.536;12.522;2024-02-21T00:43:44;1.40;;;1.30;;
19225;SDS011;9747;48.536;12.522;2024-02-21T00:46:13;1.30;;;1.20;;
19225;SDS011;9747;48.536;12.522;2024-02-21T00:48:41;1.40;;;1.30;;
19225;SDS011;9747;48.536;12.522;2024-02-21T00:51:08;1.73;;;1.30;;
19225;SDS011;9747;48.536;12.522;2024-02-21T00:53:36;1.63;;;1.30;;
19225;SDS011;9747;48.536;12.522;2024-02-21T00:56:04;1.10;;;1.10;;
19225;SDS011;9747;48.536;12.522;2024-02-21T00:58:33;1.77;;;1.25;;
19225;SDS011;9747;48.536;12.522;2024-02-21T01:01:01;1.67;;;1.38;;
19225;SDS011;9747;48.536;12.522;2024-02-21T01:03:28;2.05;;;1.33;;
19225;SDS011;9747;48.536;12.522;2024-02-21T01:05:56;1.23;;;1.13;;
19225;SDS011;9747;48.536;12.522;2024-02-21T01:08:23;1.58;;;1.30;;
19225;SDS011;9747;48.536;12.522;2024-02-21T01:10:51;1.40;;;1.30;;
19225;SDS011;9747;48.536;12.522;2024-02-21T01:13:19;1.10;;;1.10;;
19225;SDS011;9747;48.536;12.522;2024-02-21T01:15:48;1.50;;;1.40;;
19225;SDS011;9747;48.536;12.522;2024-02-21T01:18:15;1.55;;;1.45;;
19225;SDS011;9747;48.536;12.522;2024-02-21T01:20:43;1.38;;;1.27;;
19225;SDS011;9747;48.536;12.522;2024-02-21T01:23:10;1.23;;;1.23;;
19225;SDS011;9747;48.536;12.522;2024-02-21T01:25:38;1.85;;;1.33;;
19225;SDS011;9747;48.536;12.522;2024-02-21T01:28:05;1.45;;;1.38;;
19225;SDS011;9747;48.536;12.522;2024-02-21T01:30:32;1.45;;;1.27;;
19225;SDS011;9747;48.536;12.522;2024-02-21T01:33:02;1.50;;;1.30;;
19225;SDS011;9747;48.536;12.522;2024-02-21T01:35:30;1.30;;;1.20;;
19225;SDS011;9747;48.536;12.522;2024-02-21T01:37:57;1.85;;;1.10;;
19225;SDS011;9747;48.536;12.522;2024-02-21T01:40:25;1.20;;;1.20;;
19225;SDS011;9747;48.536;12.522;2024-02-21T01:42:54;1.38;;;1.27;;
19225;SDS011;9747;48.536;12.522;2024-02-21T01:45:22;1.42;;;1.33;;
19225;SDS011;9747;48.536;12.522;2024-02-21T01:47:49;1.17;;;1.17;;
19225;SDS011;9747;48.536;12.522;2024-02-21T01:50:19;1.60;;;1.33;;
19225;SDS011;9747;48.536;12.522;2024-02-21T01:52:46;1.50;;;1.35;;
19225;SDS011;9747;48.536;12.522;2024-02-21T01:55:16;1.20;;;1.20;;
19225;SDS011;9747;48.536;12.522;2024-02-21T01:57:43;1.52;;;1.42;;
19225;SDS011;9747;48.536;12.522;2024-02-21T02:00:13;1.30;;;1.30;;
19225;SDS011;9747;48.536;12.522;2024-02-21T02:02:41;1.20;;;1.10;;
19225;SDS011;9747;48.536;12.522;2024-02-21T02:05:10;1.30;;;1.20;;
19225;SDS011;9747;48.536;12.522;2024-02-21T02:07:39;1.85;;;1.30;;
19225;SDS011;9747;48.536;12.522;2024-02-21T02:10:07;1.20;;;1.20;;
19225;SDS011;9747;48.536;12.522;2024-02-21T02:12:35;1.45;;;1.30;;
19225;SDS011;9747;48.536;12.522;2024-02-21T02:15:03;1.23;;;1.23;;
19225;SDS011;9747;48.536;12.522;2024-02-21T02:17:31;1.98;;;1.30;;
19225;SDS011;9747;48.536;12.522;2024-02-21T02:19:58;1.30;;;1.20;;
19225;SDS011;9747;48.536;12.522;2024-02-21T02:22:28;1.30;;;1.20;;
19225;SDS011;9747;48.536;12.522;2024-02-21T02:24:57;1.25;;;1.20;;
19225;SDS011;9747;48.536;12.522;2024-02-21T02:27:24;1.10;;;1.00;;
19225;SDS011;9747;48.536;12.522;2024-02-21T02:29:52;1.20;;;1.10;;
19225;SDS011;9747;48.536;12.522;2024-02-21T02:32:19;1.30;;;1.20;;
19225;SDS011;9747;48.536;12.522;2024-02-21T02:34:47;1.25;;;1.13;;
19225;SDS011;9747;48.536;12.522;2024-02-21T02:37:14;1.17;;;1.10;;
19225;SDS011;9747;48.536;12.522;2024-02-21T02:39:41;1.00;;;1.00;;
19225;SDS011;9747;48.536;12.522;2024-02-21T02:42:10;1.30;;;1.20;;
19225;SDS011;9747;48.536;12.522;2024-02-21T02:44:38;1.00;;;1.00;;
19225;SDS011;9747;48.536;12.522;2024-02-21T02:47:05;2.30;;;1.20;;
19225;SDS011;9747;48.536;12.522;2024-02-21T02:49:33;1.60;;;1.10;;
19225;SDS011;9747;48.536;12.522;2024-02-21T02:52:00;1.27;;;1.15;;
19225;SDS011;9747;48.536;12.522;2024-02-21T02:54:28;2.40;;;1.30;;
19225;SDS011;9747;48.536;12.522;2024-02-21T02:56:55;1.13;;;1.05;;
19225;SDS011;9747;48.536;12.522;2024-02-21T02:59:24;1.48;;;1.02;;
19225;SDS011;9747;48.536;12.522;2024-02-21T03:01:51;1.00;;;1.00;;
19225;SDS011;9747;48.536;12.522;2024-02-21T03:04:19;1.00;;;1.00;;
19225;SDS011;9747;48.536;12.522;2024-02-21T03:06:46;1.42;;;1.10;;
19225;SDS011;9747;48.536;12.522;2024-02-21T03:09:14;1.27;;;1.10;;
19225;SDS011;9747;48.536;12.522;2024-02-21T03:11:43;1.08;;;1.08;;
19225;SDS011;9747;48.536;12.522;2024-02-21T03:14:10;1.10;;;1.10;;
19225;SDS011;9747;48.536;12.522;2024-02-21T03:16:39;1.60;;;1.10;;
19225;SDS011;9747;48.536;12.522;2024-02-21T03:19:06;1.15;;;1.10;;
19225;SDS011;9747;48.536;12.522;2024-02-21T03:21:34;1.35;;;1.20;;
19225;SDS011;9747;48.536;12.522;2024-02-21T03:24:01;1.40;;;1.30;;
19225;SDS011;9747;48.536;12.522;2024-02-21T03:26:29;1.45;;;1.10;;
19225;SDS011;9747;48.536;12.522;2024-02-21T03:28:56;1.10;;;1.10;;
19225;SDS011;9747;48.536;12.522;2024-02-21T03:31:24;1.17;;;1.08;;
19225;SDS011;9747;48.536;12.522;2024-02-21T03:33:53;1.13;;;1.10;;
19225;SDS011;9747;48.536;12.522;2024-02-21T03:36:20;1.75;;;1.10;;
19225;SDS011;9747;48.536;12.522;2024-02-21T03:38:48;1.33;;;1.13;;
19225;SDS011;9747;48.536;12.522;2024-02-21T03:41:15;1.48;;;1.20;;
19225;SDS011;9747;48.536;12.522;2024-02-21T03:43:43;1.25;;;1.15;;
19225;SDS011;9747;48.536;12.522;2024-02-21T03:46:10;1.08;;;0.98;;
19225;SDS011;9747;48.536;12.522;2024-02-21T03:48:38;1.20;;;1.10;;
19225;SDS011;9747;48.536;12.522;2024-02-21T03:51:06;1.27;;;1.20;;
19225;SDS011;9747;48.536;12.522;2024-02-21T03:53:34;1.10;;;1.10;;
19225;SDS011;9747;48.536;12.522;2024-02-21T03:56:02;1.10;;;1.00;;
19225;SDS011;9747;48.536;12.522;2024-02-21T03:58:30;1.10;;;1.10;;
19225;SDS011;9747;48.536;12.522;2024-02-21T04:00:59;1.13;;;1.02;;
19225;SDS011;9747;48.536;12.522;2024-02-21T04:03:27;1.20;;;1.10;;
19225;SDS011;9747;48.536;12.522;2024-02-21T04:05:55;0.93;;;0.93;;
19225;SDS011;9747;48.536;12.522;2024-02-21T04:08:24;1.27;;;1.17;;
19225;SDS011;9747;48.536;12.522;2024-02-21T04:10:51;0.98;;;0.90;;
19225;SDS011;9747;48.536;12.522;2024-02-21T04:13:19;1.10;;;1.10;;
19225;SDS011;9747;48.536;12.522;2024-02-21T04:15:48;1.40;;;1.10;;
19225;SDS011;9747;48.536;12.522;2024-02-21T04:18:15;1.17;;;1.08;;
19225;SDS011;9747;48.536;12.522;2024-02-21T04:20:42;0.90;;;0.90;;
19225;SDS011;9747;48.536;12.522;2024-02-21T04:23:10;1.30;;;1.00;;
19225;SDS011;9747;48.536;12.522;2024-02-21T04:25:39;1.20;;;1.20;;
19225;SDS011;9747;48.536;12.522;2024-02-21T04:28:06;1.00;;;1.00;;
19225;SDS011;9747;48.536;12.522;2024-02-21T04:30:34;0.80;;;0.80;;
19225;SDS011;9747;48.536;12.522;2024-02-21T04:33:01;1.15;;;0.98;;
19225;SDS011;9747;48.536;12.522;2024-02-21T04:35:29;1.20;;;1.10;;
19225;SDS011;9747;48.536;12.522;2024-02-21T04:37:56;1.10;;;1.00;;
19225;SDS011;9747;48.536;12.522;2024-02-21T04:40:24;1.30;;;1.20;;
19225;SDS011;9747;48.536;12.522;2024-02-21T04:42:52;1.20;;;1.00;;
19225;SDS011;9747;48.536;12.522;2024-02-21T04:45:20;1.17;;;1.13;;
19225;SDS011;9747;48.536;12.522;2024-02-21T04:47:48;1.10;;;1.00;;
19225;SDS011;9747;48.536;12.522;2024-02-21T04:50:15;1.00;;;1.00;;
19225;SDS011;9747;48.536;12.522;2024-02-21T04:52:43;1.20;;;1.10;;
19225;SDS011;9747;48.536;12.522;2024-02-21T04:55:10;1.10;;;1.00;;
19225;SDS011;9747;48.536;12.522;2024-02-21T04:57:38;1.15;;;1.08;;
19225;SDS011;9747;48.536;12.522;2024-02-21T05:00:07;1.02;;;1.02;;
19225;SDS011;9747;48.536;12.522;2024-02-21T05:02:36;1.10;;;1.00;;
19225;SDS011;9747;48.536;12.522;2024-02-21T05:05:03;1.23;;;1.05;;
19225;SDS011;9747;48.536;12.522;2024-02-21T05:07:31;1.10;;;1.00;;
19225;SDS011;9747;48.536;12.522;2024-02-21T05:09:58;1.17;;;1.08;;
19225;SDS011;9747;48.536;12.522;2024-02-21T05:12:26;9.65;;;3.10;;
19225;SDS011;9747;48.536;12.522;2024-02-21T05:14:55;3.33;;;1.70;;
19225;SDS011;9747;48.536;12.522;2024-02-21T05:17:24;7.80;;;1.95;;
19225;SDS011;9747;48.536;12.522;2024-02-21T05:19:51;2.58;;;1.75;;
19225;SDS011;9747;48.536;12.522;2024-02-21T05:22:18;3.97;;;1.75;;
19225;SDS011;9747;48.536;12.522;2024-02-21T05:24:46;4.38;;;1.80;;
19225;SDS011;9747;48.536;12.522;2024-02-21T05:27:13;4.00;;;1.30;;
19225;SDS011;9747;48.536;12.522;2024-02-21T05:29:41;1.45;;;1.35;;
19225;SDS011;9747;48.536;12.522;2024-02-21T05:32:08;4.50;;;1.30;;
19225;SDS011;9747;48.536;12.522;2024-02-21T05:34:37;2.40;;;1.52;;
19225;SDS011;9747;48.536;12.522;2024-02-21T05:37:05;3.40;;;1.48;;
19225;SDS011;9747;48.536;12.522;2024-02-21T05:39:32;2.38;;;1.42;;
19225;SDS011;9747;48.536;12.522;2024-02-21T05:42:00;3.33;;;1.23;;
19225;SDS011;9747;48.536;12.522;2024-02-21T05:44:27;2.75;;;1.90;;
19225;SDS011;9747;48.536;12.522;2024-02-21T05:46:55;1.38;;;1.20;;
19225;SDS011;9747;48.536;12.522;2024-02-21T05:49:22;3.30;;;1.67;;
19225;SDS011;9747;48.536;12.522;2024-02-21T05:51:51;2.33;;;1.30;;
19225;SDS011;9747;48.536;12.522;2024-02-21T05:54:19;3.25;;;1.58;;
19225;SDS011;9747;48.536;12.522;2024-02-21T05:56:46;2.80;;;1.50;;
19225;SDS011;9747;48.536;12.522;2024-02-21T05:59:14;2.50;;;1.30;;
19225;SDS011;9747;48.536;12.522;2024-02-21T06:01:41;2.03;;;1.40;;
19225;SDS011;9747;48.536;12.522;2024-02-21T06:04:09;2.60;;;1.30;;
19225;SDS011;9747;48.536;12.522;2024-02-21T06:06:37;3.25;;;1.42;;
19225;SDS011;9747;48.536;12.522;2024-02-21T06:09:06;2.15;;;1.65;;
19225;SDS011;9747;48.536;12.522;2024-02-21T06:11:34;3.65;;;1.42;;
19225;SDS011;9747;48.536;12.522;2024-02-21T06:14:02;1.52;;;1.35;;
19225;SDS011;9747;48.536;12.522;2024-02-21T06:16:30;2.70;;;1.33;;
19225;SDS011;9747;48.536;12.522;2024-02-21T06:18:57;2.55;;;1.38;;
19225;SDS011;9747;48.536;12.522;2024-02-21T06:21:28;2.03;;;1.27;;
19225;SDS011;9747;48.536;12.522;2024-02-21T06:23:56;4.65;;;1.50;;
19225;SDS011;9747;48.536;12.522;2024-02-21T06:26:25;1.25;;;1.20;;
19225;SDS011;9747;48.536;12.522;2024-02-21T06:28:52;1.10;;;1.10;;
19225;SDS011;9747;48.536;12.522;2024-02-21T06:31:19;1.48;;;1.20;;
19225;SDS011;9747;48.536;12.522;2024-02-21T06:33:47;3.08;;;1.38;;
19225;SDS011;9747;48.536;12.522;2024-02-21T06:36:14;4.00;;;1.50;;
19225;SDS011;9747;48.536;12.522;2024-02-21T06:38:42;1.88;;;1.20;;
19225;SDS011;9747;48.536;12.522;2024-02-21T06:41:14;3.13;;;1.30;;
19225;SDS011;9747;48.536;12.522;2024-02-21T06:43:45;2.67;;;1.30;;
19225;SDS011;9747;48.536;12.522;2024-02-21T06:46:22;1.42;;;1.20;;
19225;SDS011;9747;48.536;12.522;2024-02-21T06:48:50;1.30;;;1.20;;
19225;SDS011;9747;48.536;12.522;2024-02-21T06:51:18;2.33;;;1.42;;
19225;SDS011;9747;48.536;12.522;2024-02-21T06:53:46;1.50;;;1.20;;
19225;SDS011;9747;48.536;12.522;2024-02-21T06:56:13;1.77;;;1.20;;
19225;SDS011;9747;48.536;12.522;2024-02-21T06:58:41;1.27;;;1.17;;
19225;SDS011;9747;48.536;12.522;2024-02-21T07:01:10;1.65;;;1.20;;
19225;SDS011;9747;48.536;12.522;2024-02-21T07:03:37;2.42;;;1.25;;
19225;SDS011;9747;48.536;12.522;2024-02-21T07:06:05;1.02;;;1.02;;
19225;SDS011;9747;48.536;12.522;2024-02-21T07:08:32;2.05;;;1.33;;
19225;SDS011;9747;48.536;12.522;2024-02-21T07:11:00;1.60;;;1.10;;
19225;SDS011;9747;48.536;12.522;2024-02-21T07:13:27;1.20;;;1.20;;
19225;SDS011;9747;48.536;12.522;2024-02-21T07:15:55;1.30;;;1.20;;
19225;SDS011;9747;48.536;12.522;2024-02-21T07:18:24;1.92;;;1.23;;
19225;SDS011;9747;48.536;12.522;2024-02-21T07:20:51;1.73;;;1.13;;
19225;SDS011;9747;48.536;12.522;2024-02-21T07:23:19;1.40;;;1.10;;
19225;SDS011;9747;48.536;12.522;2024-02-21T07:25:46;3.53;;;1.30;;
19225;SDS011;9747;48.536;12.522;2024-02-21T07:28:14;1.35;;;1.25;;
19225;SDS011;9747;48.536;12.522;2024-02-21T07:30:42;1.58;;;1.10;;
19225;SDS011;9747;48.536;12.522;2024-02-21T07:33:09;1.33;;;1.20;;
19225;SDS011;9747;48.536;12.522;2024-02-21T07:35:38;1.83;;;1.10;;
19225;SDS011;9747;48.536;12.522;2024-02-21T07:38:07;1.13;;;1.02;;
19225;SDS011;9747;48.536;12.522;2024-02-21T07:40:37;1.00;;;1.00;;
19225;SDS011;9747;48.536;12.522;2024-02-21T07:43:05;1.15;;;0.98;;
19225;SDS011;9747;48.536;12.522;2024-02-21T07:45:32;1.83;;;1.15;;
19225;SDS011;9747;48.536;12.522;2024-02-21T07:48:00;1.00;;;1.00;;
19225;SDS011;9747;48.536;12.522;2024-02-21T07:50:27;1.08;;;1.00;;
19225;SDS011;9747;48.536;12.522;2024-02-21T07:52:56;1.85;;;1.27;;
19225;SDS011;9747;48.536;12.522;2024-02-21T07:55:24;1.30;;;1.20;;
19225;SDS011;9747;48.536;12.522;2024-02-21T07:57:51;1.20;;;1.10;;
19225;SDS011;9747;48.536;12.522;2024-02-21T08:00:19;1.17;;;1.10;;
19225;SDS011;9747;48.536;12.522;2024-02-21T08:02:47;1.25;;;1.00;;
19225;SDS011;9747;48.536;12.522;2024-02-21T08:05:15;1.50;;;1.00;;
19225;SDS011;9747;48.536;12.522;2024-02-21T08:07:43;1.38;;;1.10;;
19225;SDS011;9747;48.536;12.522;2024-02-21T08:10:12;1.17;;;0.95;;
19225;SDS011;9747;48.536;12.522;2024-02-21T08:12:39;2.05;;;1.20;;
19225;SDS011;9747;48.536;12.522;2024-02-21T08:15:07;1.00;;;1.00;;
19225;SDS011;9747;48.536;12.522;2024-02-21T08:17:37;1.35;;;1.00;;
19225;SDS011;9747;48.536;12.522;2024-02-21T08:20:05;1.90;;;0.90;;
19225;SDS011;9747;48.536;12.522;2024-02-21T08:22:33;1.00;;;1.00;;
19225;SDS011;9747;48.536;12.522;2024-02-21T08:25:04;1.75;;;1.13;;
19225;SDS011;9747;48.536;12.522;2024-02-21T08:27:34;1.00;;;1.00;;
19225;SDS011;9747;48.536;12.522;2024-02-21T08:30:01;1.02;;;0.93;;
19225;SDS011;9747;48.536;12.522;2024-02-21T08:32:29;1.00;;;1.00;;
19225;SDS011;9747;48.536;12.522;2024-02-21T08:34:56;1.02;;;0.95;;
19225;SDS011;9747;48.536;12.522;2024-02-21T08:37:23;1.00;;;1.00;;
19225;SDS011;9747;48.536;12.522;2024-02-21T08:39:51;0.98;;;0.98;;
19225;SDS011;9747;48.536;12.522;2024-02-21T08:42:18;1.48;;;0.90;;
19225;SDS011;9747;48.536;12.522;2024-02-21T08:44:47;1.30;;;1.20;;
19225;SDS011;9747;48.536;12.522;2024-02-21T08:47:15;1.30;;;1.10;;
19225;SDS011;9747;48.536;12.522;2024-02-21T08:49:42;0.98;;;0.90;;
19225;SDS011;9747;48.536;12.522;2024-02-21T08:52:09;0.80;;;0.80;;
19225;SDS011;9747;48.536;12.522;2024-02-21T08:54:37;1.20;;;1.10;;
19225;SDS011;9747;48.536;12.522;2024-02-21T08:57:04;1.50;;;1.13;;
19225;SDS011;9747;48.536;12.522;2024-02-21T08:59:32;2.15;;;1.00;;
19225;SDS011;9747;48.536;12.522;2024-02-21T09:02:01;1.42;;;1.05;;
19225;SDS011;9747;48.536;12.522;2024-02-21T09:04:29;1.02;;;0.95;;
19225;SDS011;9747;48.536;12.522;2024-02-21T09:06:56;1.30;;;1.00;;
19225;SDS011;9747;48.536;12.522;2024-02-21T09:09:24;1.00;;;0.90;;
19225;SDS011;9747;48.536;12.522;2024-02-21T09:11:53;1.10;;;1.00;;
19225;SDS011;9747;48.536;12.522;2024-02-21T09:14:20;1.05;;;1.00;;
19225;SDS011;9747;48.536;12.522;2024-02-21T09:16:48;0.90;;;0.90;;
19225;SDS011;9747;48.536;12.522;2024-02-21T09:19:16;1.30;;;1.20;;
19225;SDS011;9747;48.536;12.522;2024-02-21T09:21:44;1.40;;;1.30;;
19225;SDS011;9747;48.536;12.522;2024-02-21T09:24:11;1.30;;;1.20;;
19225;SDS011;9747;48.536;12.522;2024-02-21T09:26:39;1.02;;;1.00;;
19225;SDS011;9747;48.536;12.522;2024-02-21T09:29:06;1.27;;;1.15;;
19225;SDS011;9747;48.536;12.522;2024-02-21T09:31:34;1.25;;;1.10;;
19225;SDS011;9747;48.536;12.522;2024-02-21T09:34:03;0.93;;;0.93;;
19225;SDS011;9747;48.536;12.522;2024-02-21T09:36:32;1.20;;;1.10;;
19225;SDS011;9747;48.536;12.522;2024-02-21T09:39:00;1.75;;;1.25;;
19225;SDS011;9747;48.536;12.522;2024-02-21T09:41:27;1.00;;;1.00;;
19225;SDS011;9747;48.536;12.522;2024-02-21T09:43:55;0.98;;;0.98;;
19225;SDS011;9747;48.536;12.522;2024-02-21T09:46:24;1.00;;;1.00;;
19225;SDS011;9747;48.536;12.522;2024-02-21T09:49:00;1.25;;;1.15;;
19225;SDS011;9747;48.536;12.522;2024-02-21T09:51:36;1.00;;;1.00;;
19225;SDS011;9747;48.536;12.522;2024-02-21T09:54:05;1.92;;;1.13;;
19225;SDS011;9747;48.536;12.522;2024-02-21T09:56:34;1.23;;;1.13;;
19225;SDS011;9747;48.536;12.522;2024-02-21T09:59:02;1.30;;;1.20;;
19225;SDS011;9747;48.536;12.522;2024-02-21T10:01:30;1.20;;;1.10;;
19225;SDS011;9747;48.536;12.522;2024-02-21T10:03:58;1.00;;;1.00;;
19225;SDS011;9747;48.536;12.522;2024-02-21T10:06:27;1.67;;;1.33;;
19225;SDS011;9747;48.536;12.522;2024-02-21T10:08:56;1.15;;;1.05;;
19225;SDS011;9747;48.536;12.522;2024-02-21T10:11:24;1.33;;;1.27;;
19225;SDS011;9747;48.536;12.522;2024-02-21T10:14:02;1.30;;;0.93;;
19225;SDS011;9747;48.536;12.522;2024-02-21T10:16:31;1.08;;;1.00;;
19225;SDS011;9747;48.536;12.522;2024-02-21T10:18:58;1.25;;;1.15;;
19225;SDS011;9747;48.536;12.522;2024-02-21T10:21:26;0.90;;;0.90;;
19225;SDS011;9747;48.536;12.522;2024-02-21T10:23:54;1.70;;;1.08;;
19225;SDS011;9747;48.536;12.522;2024-02-21T10:26:23;0.90;;;0.90;;
19225;SDS011;9747;48.536;12.522;2024-02-21T10:28:51;0.93;;;0.90;;
19225;SDS011;9747;48.536;12.522;2024-02-21T10:31:22;1.50;;;1.00;;
19225;SDS011;9747;48.536;12.522;2024-02-21T10:33:54;1.20;;;1.10;;
19225;SDS011;9747;48.536;12.522;2024-02-21T10:36:23;1.08;;;1.00;;
19225;SDS011;9747;48.536;12.522;2024-02-21T10:38:51;0.93;;;0.93;;
19225;SDS011;9747;48.536;12.522;2024-02-21T10:41:21;0.98;;;0.95;;
19225;SDS011;9747;48.536;12.522;2024-02-21T10:43:50;1.33;;;1.10;;
19225;SDS011;9747;48.536;12.522;2024-02-21T10:46:19;0.95;;;0.95;;
19225;SDS011;9747;48.536;12.522;2024-02-21T10:48:48;1.50;;;0.98;;
19225;SDS011;9747;48.536;12.522;2024-02-21T10:51:29;1.10;;;1.00;;
19225;SDS011;9747;48.536;12.522;2024-02-21T10:54:02;0.82;;;0.82;;
19225;SDS011;9747;48.536;12.522;2024-02-21T10:56:46;1.73;;;1.00;;
19225;SDS011;9747;48.536;12.522;2024-02-21T10:59:17;1.10;;;1.02;;
19225;SDS011;9747;48.536;12.522;2024-02-21T11:01:44;0.82;;;0.82;;
19225;SDS011;9747;48.536;12.522;2024-02-21T11:04:12;1.05;;;1.05;;
19225;SDS011;9747;48.536;12.522;2024-02-21T11:06:40;1.20;;;1.10;;
19225;SDS011;9747;48.536;12.522;2024-02-21T11:09:08;1.33;;;1.23;;
19225;SDS011;9747;48.536;12.522;2024-02-21T11:11:37;1.73;;;1.10;;
19225;SDS011;9747;48.536;12.522;2024-02-21T11:14:10;1.83;;;1.20;;
19225;SDS011;9747;48.536;12.522;2024-02-21T11:16:44;1.92;;;1.13;;
19225;SDS011;9747;48.536;12.522;2024-02-21T11:19:18;2.25;;;1.30;;
19225;SDS011;9747;48.536;12.522;2024-02-21T11:21:48;1.02;;;1.02;;
19225;SDS011;9747;48.536;12.522;2024-02-21T11:24:25;1.95;;;1.35;;
19225;SDS011;9747;48.536;12.522;2024-02-21T11:26:54;4.60;;;1.60;;
19225;SDS011;9747;48.536;12.522;2024-02-21T11:29:26;2.45;;;1.08;;
19225;SDS011;9747;48.536;12.522;2024-02-21T11:31:54;1.88;;;1.40;;
19225;SDS011;9747;48.536;12.522;2024-02-21T11:34:22;1.33;;;1.20;;
19225;SDS011;9747;48.536;12.522;2024-02-21T11:36:50;2.88;;;1.25;;
19225;SDS011;9747;48.536;12.522;2024-02-21T11:39:19;2.67;;;1.42;;
19225;SDS011;9747;48.536;12.522;2024-02-21T11:41:58;2.38;;;1.05;;
19225;SDS011;9747;48.536;12.522;2024-02-21T11:44:31;1.83;;;1.10;;
19225;SDS011;9747;48.536;12.522;2024-02-21T11:46:59;1.92;;;1.02;;
19225;SDS011;9747;48.536;12.522;2024-02-21T11:49:27;2.60;;;1.02;;
19225;SDS011;9747;48.536;12.522;2024-02-21T11:51:59;2.25;;;1.30;;
19225;SDS011;9747;48.536;12.522;2024-02-21T11:54:29;1.83;;;1.23;;
19225;SDS011;9747;48.536;12.522;2024-02-21T11:56:56;2.53;;;1.20;;
19225;SDS011;9747;48.536;12.522;2024-02-21T11:59:24;1.58;;;1.15;;
19225;SDS011;9747;48.536;12.522;2024-02-21T12:01:53;4.28;;;1.35;;
19225;SDS011;9747;48.536;12.522;2024-02-21T12:04:20;2.13;;;1.10;;
19225;SDS011;9747;48.536;12.522;2024-02-21T12:06:49;1.98;;;1.00;;
19225;SDS011;9747;48.536;12.522;2024-02-21T12:09:18;2.17;;;1.13;;
19225;SDS011;9747;48.536;12.522;2024-02-21T12:11:45;4.07;;;1.17;;
19225;SDS011;9747;48.536;12.522;2024-02-21T12:14:22;2.08;;;1.20;;
19225;SDS011;9747;48.536;12.522;2024-02-21T12:16:54;3.00;;;1.17;;
19225;SDS011;9747;48.536;12.522;2024-02-21T12:19:22;2.65;;;0.98;;
19225;SDS011;9747;48.536;12.522;2024-02-21T12:21:49;1.80;;;1.10;;
19225;SDS011;9747;48.536;12.522;2024-02-21T12:24:20;3.28;;;1.10;;
19225;SDS011;9747;48.536;12.522;2024-02-21T12:26:49;3.33;;;1.00;;
19225;SDS011;9747;48.536;12.522;2024-02-21T12:29:17;2.65;;;1.17;;
19225;SDS011;9747;48.536;12.522;2024-02-21T12:31:45;7.50;;;1.10;;
19225;SDS011;9747;48.536;12.522;2024-02-21T12:34:14;3.75;;;1.08;;
19225;SDS011;9747;48.536;12.522;2024-02-21T12:36:42;1.02;;;0.80;;
19225;SDS011;9747;48.536;12.522;2024-02-21T12:39:12;1.08;;;0.90;;
19225;SDS011;9747;48.536;12.522;2024-02-21T12:41:40;1.45;;;0.95;;
19225;SDS011;9747;48.536;12.522;2024-02-21T12:44:09;2.67;;;1.20;;
19225;SDS011;9747;48.536;12.522;2024-02-21T12:46:37;2.10;;;0.98;;
19225;SDS011;9747;48.536;12.522;2024-02-21T12:49:06;1.35;;;0.93;;
19225;SDS011;9747;48.536;12.522;2024-02-21T12:51:35;1.35;;;0.90;;
19225;SDS011;9747;48.536;12.522;2024-02-21T12:54:04;4.38;;;1.65;;
19225;SDS011;9747;48.536;12.522;2024-02-21T12:56:32;4.78;;;1.90;;
19225;SDS011;9747;48.536;12.522;2024-02-21T12:59:00;3.13;;;2.00;;
19225;SDS011;9747;48.536;12.522;2024-02-21T13:01:27;2.00;;;1.63;;
19225;SDS011;9747;48.536;12.522;2024-02-21T13:03:55;2.35;;;1.70;;
19225;SDS011;9747;48.536;12.522;2024-02-21T13:06:23;3.78;;;1.75;;
19225;SDS011;9747;48.536;12.522;2024-02-21T13:08:52;2.65;;;1.77;;
19225;SDS011;9747;48.536;12.522;2024-02-21T13:11:19;2.90;;;1.67;;
19225;SDS011;9747;48.536;12.522;2024-02-21T13:13:47;4.63;;;1.90;;
19225;SDS011;9747;48.536;12.522;2024-02-21T13:16:14;5.35;;;2.30;;
19225;SDS011;9747;48.536;12.522;2024-02-21T13:18:42;2.97;;;2.00;;
19225;SDS011;9747;48.536;12.522;2024-02-21T13:21:12;3.03;;;2.05;;
19225;SDS011;9747;48.536;12.522;2024-02-21T13:23:40;3.03;;;1.98;;
19225;SDS011;9747;48.536;12.522;2024-02-21T13:26:10;2.70;;;2.00;;
19225;SDS011;9747;48.536;12.522;2024-02-21T13:28:39;4.10;;;1.92;;
19225;SDS011;9747;48.536;12.522;2024-02-21T13:31:07;4.13;;;2.08;;
19225;SDS011;9747;48.536;12.522;2024-02-21T13:33:34;2.05;;;1.83;;
19225;SDS011;9747;48.536;12.522;2024-02-21T13:36:02;3.80;;;1.95;;
19225;SDS011;9747;48.536;12.522;2024-02-21T13:38:30;2.80;;;2.03;;
19225;SDS011;9747;48.536;12.522;2024-02-21T13:40:57;3.75;;;1.80;;
19225;SDS011;9747;48.536;12.522;2024-02-21T13:43:26;1.90;;;1.63;;
19225;SDS011;9747;48.536;12.522;2024-02-21T13:45:56;2.80;;;1.58;;
19225;SDS011;9747;48.536;12.522;2024-02-21T13:48:25;2.42;;;1.60;;
19225;SDS011;9747;48.536;12.522;2024-02-21T13:50:54;1.65;;;1.40;;
19225;SDS011;9747;48.536;12.522;2024-02-21T13:53:21;3.05;;;1.15;;
19225;SDS011;9747;48.536;12.522;2024-02-21T13:55:49;2.35;;;1.42;;
19225;SDS011;9747;48.536;12.522;2024-02-21T13:58:16;1.90;;;1.40;;
19225;SDS011;9747;48.536;12.522;2024-02-21T14:00:45;1.55;;;1.20;;
19225;SDS011;9747;48.536;12.522;2024-02-21T14:03:13;2.05;;;1.45;;
19225;SDS011;9747;48.536;12.522;2024-02-21T14:05:40;1.20;;;1.10;;
19225;SDS011;9747;48.536;12.522;2024-02-21T14:08:08;2.33;;;1.10;;
19225;SDS011;9747;48.536;12.522;2024-02-21T14:10:35;2.03;;;1.20;;
19225;SDS011;9747;48.536;12.522;2024-02-21T14:13:03;2.95;;;1.20;;
19225;SDS011;9747;48.536;12.522;2024-02-21T14:15:30;1.67;;;1.13;;
19225;SDS011;9747;48.536;12.522;2024-02-21T14:17:59;4.28;;;1.35;;
19225;SDS011;9747;48.536;12.522;2024-02-21T14:20:27;2.05;;;1.10;;
19225;SDS011;9747;48.536;12.522;2024-02-21T14:22:55;1.25;;;1.05;;
19225;SDS011;9747;48.536;12.522;2024-02-21T14:25:23;2.22;;;1.10;;
19225;SDS011;9747;48.536;12.522;2024-02-21T14:27:50;3.03;;;2.00;;
19225;SDS011;9747;48.536;12.522;2024-02-21T14:30:18;2.53;;;1.95;;
19225;SDS011;9747;48.536;12.522;2024-02-21T14:32:45;2.47;;;1.70;;
19225;SDS011;9747;48.536;12.522;2024-02-21T14:35:14;1.80;;;1.70;;
19225;SDS011;9747;48.536;12.522;2024-02-21T14:37:41;3.40;;;1.52;;
19225;SDS011;9747;48.536;12.522;2024-02-21T14:40:09;3.72;;;1.60;;
19225;SDS011;9747;48.536;12.522;2024-02-21T14:42:38;2.63;;;1.42;;
19225;SDS011;9747;48.536;12.522;2024-02-21T14:45:06;2.70;;;1.50;;
19225;SDS011;9747;48.536;12.522;2024-02-21T14:47:34;2.75;;;1.35;;
19225;SDS011;9747;48.536;12.522;2024-02-21T14:50:02;2.10;;;1.48;;
19225;SDS011;9747;48.536;12.522;2024-02-21T14:52:32;1.50;;;1.40;;
19225;SDS011;9747;48.536;12.522;2024-02-21T14:55:00;2.45;;;1.30;;